EmailTwitter


Observations de surface / Québec / CYSC

Régions: Québec | Canada | États-Unis | Europe | France | UK | Elsewhere
Station
Affichage
Infos & localisation pour CYSC | Aide pour décoder les METARs

Observations prises le 2017-05-23 à 06H00 UTC à SHERBROOKE, QB (CYSC)

Etat du ciel: couvert.

Température: 10.0 Celsius

Point de rosée: 9.0 Celsius

Humidité relative: 93%

Vents: Sud-ouest à 11 km/h ou 6 noeuds.

Pression au niveau moyen de la mer: 101.28 kilopascals.

Calage altimétrique: 101.22 kilopascals ou 29.89 pouces de mercure.

Visibilité horizontale: 9.00 milles terrestres ou 14.40 kilomètres.

Hauteur du plafond: 1189 mètres ( 3900 pieds ).

Observation METAR:

CYSC 230600Z AUTO 22006KT 9SM SCT028 BKN039 OVC065 10/09 A2989 RMK SLP128=